Bowling Green, KY (42103)

6:21 PM CDT on July 22, 2014 (GMT -0500)
Bowling Green-Warren County Regional (KBWG) Elev 548 ft | 36.96 °N, 86.42 °W | Change Station

Current weather conditions updated 28 minutes ago

Partly Cloudy
Partly Cloudy
92 °F
Feels Like 94 °F
N
5
Wind Variable Wind from Variable

Tomorrow is forecast to be nearly the same temperature as today. Afternoon thunderstorms.

Today
High -- | Low -- °F
--% Chance of Precip.
Yesterday
High -- | Low -- °F
Precip. -- in
5:42 AM 8:00 PM
Waning Crescent, 14% visible
Pressure 30.01 in
Visibility 10.0 miles
Clouds Few 6000 ft
Heat Index 94 °F
Dew Point 65 °F
Humidity 41%
Rainfall 0.00 in
Snow Depth Not available.
UV 2 out of 12
Pollen 3.90 out of 12
Air Quality Not available.
Flu Activity Not available.
METAR KBWG 222253Z AUTO VRB04KT 10SM FEW060 33/18 A3003 RMK AO2 SLP162 T03330183

More Conditions Fewer Conditions

Pressure 30.01 in
Visibility 10.0 miles
Clouds Few 6000 ft
Heat Index 94 °F
Dew Point 65 °F
Humidity 41%
Rainfall 0.00 in
Snow Depth Not available.
UV 2 out of 12
Pollen 3.90 out of 12
Air Quality Not available.
Flu Activity Not available.
METAR KBWG 222253Z AUTO VRB04KT 10SM FEW060 33/18 A3003 RMK AO2 SLP162 T03330183

More Conditions Fewer Conditions

10-Day Weather Forecast

Almanac

Astronomy

Jul. 22, 2014 Rise Set
Actual Time 5:42 AM CDT 8:00 PM CDT
Civil Twilight 5:13 AM CDT 8:30 PM CDT
Nautical Twilight 4:37 AM CDT 9:06 PM CDT
Astronomical Twilight 3:57 AM CDT 9:45 PM CDT
Moon 2:14 AM CDT 4:38 PM CDT
Length of Visible Light 15h 16m
Length of Day
14h 17m
Tomorrow will be 1m 29s shorter.
Waning Crescent, 14% of the Moon is Illuminated
Today
Waning Crescent
Jul 26
New
Aug 3
First Quarter
Aug 10
Full
Aug 17
Last Quarter

Today's Extremes

State Highs State Lows

Community

WunderPhotos

Upload Photos

1,736,391 photos uploaded!

Nearby

Snow Depth

Station Depth Elevation
No new snow has been reported.

Earthquake Activity

City Distance Mag. Time & Date
No recent earthquake activity has been reported nearby.
Minimum magnitude displayed is 2.5.

Coastal Water Temperatures

Place Temperature
No Stations Reporting

Nearby Weather Stations

Station Location Temp. Heat Index Dew Point Humidity Wind Precip. Elev Updated Type
Plano, Bowling Green, KY 91.7 °F 103 °F 75 °F 59% South  at  1.0 mph 0.00 in / hr 630 ft 6:21 PM CDT Rapid Fire
Ridgeview Drive, Bowling Green, KY 92.0 °F 102 °F 74 °F 56% SW  at  0.0 mph 0.00 in / hr 650 ft 6:21 PM CDT Rapid Fire
MIDCREST DR., Bowling Green, KY 88.7 °F 95 °F 71 °F 56% West  at  0.0 mph 0.00 in / hr 686 ft 6:21 PM CDT Rapid Fire
Park City Glasgow Rd., Glasgow, KY 91.4 °F 99 °F 72 °F 54% SSE  at  1.0 mph 0.00 in / hr 736 ft 6:21 PM CDT Rapid Fire
Al Bedel Road, Auburn, KY 90.8 °F 95 °F 68 °F 48% South  at  0.0 mph 0.00 in / hr 650 ft 6:20 PM CDT Normal

Show More Stations Show Fewer Stations